Time;durP1;ratioP1;P1;durP2;ratioP2;P2;SDS_P1;SDS_P2;PMS_P1;PMS_P2;Temp;Humidity;BMP_temperature;BMP_pressure;BME280_temperature;BME280_humidity;BME280_pressure;Samples;Min_cycle;Max_cycle;Signal;HPM_P1;HPM_P2
2021/10/15 00:00:04;;;;;;;41.33;9.25;;;11.10;85.30;;;;;;5023388;28;20188;-59
2021/10/15 00:02:30;;;;;;;43.97;8.23;;;11.10;85.40;;;;;;5024601;28;20033;-59
2021/10/15 00:04:55;;;;;;;56.45;9.27;;;11.10;85.30;;;;;;5026945;28;20021;-59
2021/10/15 00:07:21;;;;;;;34.35;8.68;;;11.10;85.40;;;;;;5024442;28;20060;-59
2021/10/15 00:09:46;;;;;;;40.33;8.15;;;11.10;85.40;;;;;;5023341;28;20030;-59
2021/10/15 00:12:13;;;;;;;47.53;9.18;;;11.10;85.50;;;;;;5026938;28;20044;-59
2021/10/15 00:14:38;;;;;;;50.72;8.55;;;11.00;85.50;;;;;;5009577;28;20069;-59
2021/10/15 00:17:04;;;;;;;43.45;8.52;;;11.00;85.60;;;;;;5026941;28;20141;-60
2021/10/15 00:19:29;;;;;;;59.58;9.77;;;11.00;85.80;;;;;;5025207;28;20511;-59
2021/10/15 00:21:55;;;;;;;57.17;9.05;;;11.00;85.80;;;;;;5024975;28;20124;-60
2021/10/15 00:24:20;;;;;;;66.35;10.93;;;11.00;86.00;;;;;;5027038;28;20026;-62
2021/10/15 00:26:46;;;;;;;73.25;10.02;;;11.00;86.10;;;;;;5024021;28;20448;-60
2021/10/15 00:29:11;;;;;;;81.32;10.07;;;10.90;86.10;;;;;;5025000;28;20484;-60
2021/10/15 00:31:37;;;;;;;90.50;10.30;;;10.90;86.30;;;;;;5025404;28;20507;-60
2021/10/15 00:34:02;;;;;;;88.03;10.73;;;10.90;86.20;;;;;;5019921;28;20075;-60
2021/10/15 00:36:28;;;;;;;84.97;10.60;;;10.90;86.10;;;;;;5022560;28;20120;-60
2021/10/15 00:38:54;;;;;;;67.90;9.77;;;10.90;86.30;;;;;;5023683;28;20083;-60
2021/10/15 00:41:19;;;;;;;63.17;9.50;;;10.90;86.40;;;;;;5026320;28;20037;-59
2021/10/15 00:44:05;;;;;;;72.05;9.60;;;10.80;86.60;;;;;;5022939;28;20053;-60
2021/10/15 00:46:31;;;;;;;49.72;8.68;;;10.80;86.80;;;;;;5023285;28;20026;-60
2021/10/15 00:48:56;;;;;;;72.13;9.07;;;10.80;87.00;;;;;;5020612;28;20608;-62
2021/10/15 00:51:23;;;;;;;57.47;8.73;;;10.80;87.00;;;;;;5025607;28;20044;-63
2021/10/15 00:53:48;;;;;;;54.65;9.07;;;10.80;87.10;;;;;;5023276;28;20029;-62
2021/10/15 00:56:14;;;;;;;42.35;9.30;;;10.80;87.20;;;;;;5007930;28;20030;-62
2021/10/15 00:58:39;;;;;;;43.00;11.45;;;10.70;87.20;;;;;;5005753;28;20064;-62
2021/10/15 01:01:05;;;;;;;51.42;10.65;;;10.70;87.20;;;;;;5023783;28;20140;-62
2021/10/15 01:03:30;;;;;;;45.42;10.25;;;10.70;87.30;;;;;;5023126;28;20030;-62
2021/10/15 01:05:56;;;;;;;37.03;8.52;;;10.70;87.30;;;;;;5006752;28;20029;-62
2021/10/15 01:08:21;;;;;;;36.45;8.68;;;10.60;87.20;;;;;;5020270;28;20079;-62
2021/10/15 01:10:47;;;;;;;34.38;8.38;;;10.70;87.20;;;;;;5022073;28;20574;-62
2021/10/15 01:13:13;;;;;;;30.42;8.60;;;10.60;87.20;;;;;;5004624;28;20471;-62
2021/10/15 01:15:38;;;;;;;35.08;8.93;;;10.60;87.10;;;;;;5023036;28;20545;-62
2021/10/15 01:18:10;;;;;;;38.90;8.43;;;10.60;87.20;;;;;;5025571;28;20508;-62
2021/10/15 01:20:36;;;;;;;27.80;8.25;;;10.60;87.10;;;;;;5025599;28;20036;-62
2021/10/15 01:23:01;;;;;;;30.15;8.27;;;10.60;87.00;;;;;;5023547;28;20041;-62
2021/10/15 01:25:27;;;;;;;26.40;7.53;;;10.60;86.90;;;;;;5022312;28;20536;-62
2021/10/15 01:27:52;;;;;;;33.40;7.32;;;10.60;86.90;;;;;;5022183;28;20120;-62
2021/10/15 01:30:18;;;;;;;29.90;8.32;;;10.50;86.80;;;;;;5025818;28;20033;-62
2021/10/15 01:32:43;;;;;;;25.98;7.20;;;10.50;86.90;;;;;;5025600;28;20037;-62
2021/10/15 01:35:09;;;;;;;33.38;7.32;;;10.50;86.90;;;;;;5024111;28;20028;-62
2021/10/15 01:37:34;;;;;;;20.98;6.50;;;10.50;86.90;;;;;;5023838;28;20033;-62
2021/10/15 01:40:00;;;;;;;14.40;6.80;;;10.50;86.90;;;;;;5021399;28;20395;-61
2021/10/15 01:45:09;;;;;;;20.63;6.20;;;10.40;86.80;;;;;;5022913;28;20113;-62
2021/10/15 01:47:35;;;;;;;22.42;5.80;;;10.40;86.90;;;;;;5023936;28;20108;-61
2021/10/15 01:50:01;;;;;;;11.88;6.80;;;10.40;86.80;;;;;;5024956;28;20052;-61
2021/10/15 01:52:27;;;;;;;23.00;7.43;;;10.40;86.80;;;;;;5021690;28;20030;-62
2021/10/15 01:54:52;;;;;;;13.93;6.72;;;10.40;86.90;;;;;;5023660;28;20045;-61
2021/10/15 01:57:18;;;;;;;20.23;6.82;;;10.40;87.00;;;;;;5025563;28;20117;-62
2021/10/15 01:59:43;;;;;;;14.70;6.35;;;10.30;87.00;;;;;;5024061;28;20068;-62
2021/10/15 02:02:09;;;;;;;12.55;6.78;;;10.30;87.00;;;;;;5023689;28;20042;-61
2021/10/15 02:04:34;;;;;;;14.00;6.68;;;10.30;86.90;;;;;;5021787;28;20029;-62
2021/10/15 02:07:00;;;;;;;13.10;6.13;;;10.30;86.90;;;;;;5022458;28;20045;-62
2021/10/15 02:09:25;;;;;;;14.60;6.35;;;10.20;86.90;;;;;;5024196;28;20041;-62
2021/10/15 02:11:51;;;;;;;16.33;5.80;;;10.20;86.90;;;;;;5025422;28;20025;-62
2021/10/15 02:14:16;;;;;;;13.93;5.60;;;10.20;87.50;;;;;;5023925;28;20057;-62
2021/10/15 02:16:42;;;;;;;11.35;5.78;;;10.30;86.90;;;;;;5020824;28;20491;-61
2021/10/15 02:19:07;;;;;;;13.55;5.90;;;10.20;86.90;;;;;;5023152;28;20032;-62
2021/10/15 02:21:33;;;;;;;16.10;6.18;;;10.20;87.00;;;;;;5022867;28;20084;-61
2021/10/15 02:23:58;;;;;;;12.50;5.88;;;10.20;86.90;;;;;;5025122;28;20033;-62
2021/10/15 02:26:24;;;;;;;17.38;5.65;;;10.20;86.90;;;;;;5023901;28;20107;-62
2021/10/15 02:28:49;;;;;;;9.55;5.45;;;10.20;86.90;;;;;;5021594;28;20477;-62
2021/10/15 02:31:15;;;;;;;8.43;5.00;;;10.10;86.90;;;;;;5021137;28;20113;-62
2021/10/15 02:33:40;;;;;;;11.10;5.50;;;10.10;87.00;;;;;;5022712;28;20021;-62
2021/10/15 02:36:06;;;;;;;11.68;5.15;;;10.10;87.10;;;;;;5024241;28;20370;-62
2021/10/15 02:38:31;;;;;;;12.05;5.28;;;10.10;87.20;;;;;;5024753;28;20026;-62
2021/10/15 02:40:57;;;;;;;9.38;5.35;;;10.00;87.30;;;;;;5021791;28;20076;-62
2021/10/15 02:43:23;;;;;;;8.20;4.90;;;10.00;87.30;;;;;;5022700;28;20049;-61
2021/10/15 02:45:48;;;;;;;10.82;4.50;;;10.00;87.30;;;;;;5021384;28;20120;-62
2021/10/15 02:48:14;;;;;;;8.55;5.07;;;10.00;87.40;;;;;;5023950;28;20456;-62
2021/10/15 02:50:40;;;;;;;8.55;4.78;;;10.00;87.50;;;;;;5023377;28;20041;-61
2021/10/15 02:53:05;;;;;;;7.93;5.18;;;10.00;87.50;;;;;;5004602;28;20026;-62
2021/10/15 02:55:31;;;;;;;6.88;4.85;;;9.90;87.50;;;;;;5019177;28;20030;-61
2021/10/15 02:57:56;;;;;;;14.13;5.28;;;9.90;87.50;;;;;;5023334;28;20484;-62
2021/10/15 03:00:22;;;;;;;13.80;5.00;;;9.90;87.50;;;;;;5022578;28;20075;-62
2021/10/15 03:02:47;;;;;;;10.60;4.30;;;9.90;87.50;;;;;;5022846;28;20030;-61
2021/10/15 03:05:13;;;;;;;7.45;4.68;;;9.90;87.50;;;;;;5025078;28;20029;-61
2021/10/15 03:07:39;;;;;;;14.68;4.85;;;10.00;87.50;;;;;;5008091;28;20030;-62
2021/10/15 03:10:05;;;;;;;10.02;4.70;;;9.90;87.50;;;;;;5023340;28;20087;-62
2021/10/15 03:12:31;;;;;;;10.05;5.50;;;9.90;87.50;;;;;;5025149;28;20037;-62
2021/10/15 03:14:57;;;;;;;10.95;5.55;;;9.90;87.40;;;;;;5025742;28;20631;-61
2021/10/15 03:17:22;;;;;;;9.82;4.72;;;9.90;87.40;;;;;;5024246;28;20220;-61
2021/10/15 03:19:48;;;;;;;10.75;5.78;;;9.90;87.30;;;;;;5008055;28;20060;-62
2021/10/15 03:22:13;;;;;;;9.95;6.93;;;9.80;87.40;;;;;;5008418;28;21385;-62
2021/10/15 03:24:39;;;;;;;8.68;6.30;;;9.80;87.40;;;;;;5022708;28;20505;-62
2021/10/15 03:27:04;;;;;;;10.25;5.43;;;9.90;87.40;;;;;;5026130;28;20560;-62
2021/10/15 03:29:30;;;;;;;10.90;5.20;;;9.70;87.40;;;;;;5026438;28;20044;-62
2021/10/15 03:31:55;;;;;;;8.25;5.28;;;9.80;87.40;;;;;;5024165;28;20044;-61
2021/10/15 03:34:21;;;;;;;9.27;4.88;;;9.80;87.50;;;;;;5025973;28;20045;-62
2021/10/15 03:36:46;;;;;;;7.47;5.00;;;9.80;87.60;;;;;;5023920;28;20033;-62
2021/10/15 03:39:12;;;;;;;13.45;5.55;;;9.80;87.70;;;;;;5025832;28;20092;-62
2021/10/15 03:41:38;;;;;;;7.93;4.82;;;9.70;87.70;;;;;;5027234;28;20078;-60
2021/10/15 03:44:04;;;;;;;8.90;4.90;;;9.70;87.70;;;;;;5025804;28;20698;-62
2021/10/15 03:46:29;;;;;;;9.52;5.00;;;9.70;87.70;;;;;;5022449;28;20457;-61
2021/10/15 03:48:55;;;;;;;7.88;4.75;;;9.70;87.80;;;;;;5027331;28;20517;-62
2021/10/15 03:51:21;;;;;;;8.20;5.00;;;9.70;87.90;;;;;;5024087;28;20473;-62
2021/10/15 03:53:46;;;;;;;8.75;5.05;;;9.70;87.90;;;;;;5027931;28;20043;-61
2021/10/15 03:56:11;;;;;;;6.90;5.05;;;9.70;87.90;;;;;;5025410;28;20025;-62
2021/10/15 03:58:37;;;;;;;6.78;4.45;;;9.60;87.90;;;;;;5028018;28;20042;-62
2021/10/15 04:01:02;;;;;;;7.05;4.95;;;9.70;88.10;;;;;;5026257;28;20065;-63
2021/10/15 04:03:28;;;;;;;6.03;4.60;;;9.60;88.10;;;;;;5025443;28;20032;-62
2021/10/15 04:05:54;;;;;;;5.47;4.22;;;9.60;88.20;;;;;;5026793;28;20087;-62
2021/10/15 04:08:19;;;;;;;5.88;4.50;;;9.60;88.20;;;;;;5026317;28;20469;-62
2021/10/15 04:10:45;;;;;;;5.28;4.22;;;9.60;88.30;;;;;;5024304;28;20719;-62
2021/10/15 04:13:10;;;;;;;6.57;4.35;;;9.60;88.40;;;;;;5026413;28;20037;-62
2021/10/15 04:15:36;;;;;;;6.80;4.60;;;9.50;88.40;;;;;;5024843;28;20033;-61
2021/10/15 04:18:01;;;;;;;7.97;5.20;;;9.50;88.50;;;;;;5026274;28;20030;-62
2021/10/15 04:20:27;;;;;;;10.82;4.88;;;9.50;88.60;;;;;;5025498;28;20037;-62
2021/10/15 04:22:52;;;;;;;6.05;4.15;;;9.50;88.70;;;;;;5027377;28;20100;-62
2021/10/15 04:25:18;;;;;;;5.93;4.45;;;9.50;88.70;;;;;;5025233;28;20071;-62
2021/10/15 04:27:43;;;;;;;7.65;4.80;;;9.50;88.70;;;;;;5024697;28;20106;-61
2021/10/15 04:30:09;;;;;;;4.75;4.25;;;9.50;88.60;;;;;;5025675;28;20645;-62
2021/10/15 04:32:34;;;;;;;6.55;4.78;;;9.50;88.60;;;;;;5026323;28;20080;-62
2021/10/15 04:35:00;;;;;;;7.97;4.40;;;9.50;88.70;;;;;;5025561;28;20029;-66
2021/10/15 04:37:25;;;;;;;10.30;4.88;;;9.50;88.80;;;;;;5026942;28;20302;-62
2021/10/15 04:39:51;;;;;;;61.70;8.57;;;9.40;88.90;;;;;;5025389;28;20083;-62
2021/10/15 04:42:16;;;;;;;44.15;7.95;;;9.40;88.80;;;;;;5024824;28;20107;-61
2021/10/15 04:44:42;;;;;;;24.75;6.82;;;9.40;88.90;;;;;;5021047;28;20122;-62
2021/10/15 04:47:07;;;;;;;29.00;6.28;;;9.40;89.60;;;;;;5025157;28;20060;-62
2021/10/15 04:49:33;;;;;;;23.73;5.97;;;9.40;89.10;;;;;;5027764;28;20456;-62
2021/10/15 04:51:58;;;;;;;25.25;6.18;;;9.40;89.10;;;;;;5025187;28;20037;-62
2021/10/15 04:54:24;;;;;;;20.55;6.00;;;9.40;89.20;;;;;;5022623;28;20130;-61
2021/10/15 04:56:50;;;;;;;22.15;6.57;;;9.40;89.20;;;;;;5024925;28;20040;-62
2021/10/15 04:59:15;;;;;;;21.88;6.40;;;9.30;89.10;;;;;;5026293;28;20033;-61
2021/10/15 05:01:40;;;;;;;15.95;6.10;;;9.40;89.30;;;;;;5025727;28;20260;-61
2021/10/15 05:04:06;;;;;;;29.33;6.47;;;9.30;89.20;;;;;;5024122;28;20423;-61
2021/10/15 05:06:32;;;;;;;21.05;6.18;;;9.40;89.30;;;;;;5006277;28;20051;-62
2021/10/15 05:09:02;;;;;;;19.33;6.63;;;9.30;89.20;;;;;;5023931;28;20037;-61
2021/10/15 05:11:31;;;;;;;24.30;6.20;;;9.30;89.30;;;;;;5024989;28;20044;-62
2021/10/15 05:13:56;;;;;;;18.00;6.95;;;9.30;89.30;;;;;;5026613;28;20395;-62
2021/10/15 05:16:22;;;;;;;26.30;6.55;;;9.30;89.20;;;;;;5025492;28;20747;-62
2021/10/15 05:18:47;;;;;;;21.90;6.25;;;9.30;89.30;;;;;;5025522;28;20026;-62
2021/10/15 05:21:13;;;;;;;22.85;5.65;;;9.30;89.30;;;;;;5020352;28;20047;-62
2021/10/15 05:23:39;;;;;;;29.33;6.45;;;9.30;89.40;;;;;;5021066;28;20049;-61
2021/10/15 05:26:04;;;;;;;19.13;6.25;;;9.30;89.40;;;;;;5020602;28;20049;-62
2021/10/15 05:28:30;;;;;;;23.33;6.57;;;9.30;89.60;;;;;;5023730;28;20057;-62
2021/10/15 05:30:57;;;;;;;19.65;6.57;;;9.30;89.90;;;;;;5024512;28;20108;-61
2021/10/15 05:33:22;;;;;;;17.65;6.28;;;9.30;90.00;;;;;;5023259;28;20025;-62
2021/10/15 05:35:48;;;;;;;31.13;7.00;;;9.20;90.10;;;;;;5022418;28;20171;-62
2021/10/15 05:38:13;;;;;;;31.98;6.75;;;9.20;90.10;;;;;;5024344;28;20059;-62
2021/10/15 05:40:39;;;;;;;24.92;6.18;;;9.20;90.10;;;;;;5024107;28;20120;-62
2021/10/15 05:43:04;;;;;;;12.70;6.50;;;9.20;90.20;;;;;;5023261;28;20050;-62
2021/10/15 05:45:30;;;;;;;13.80;5.90;;;9.20;90.20;;;;;;5018197;28;20109;-62
2021/10/15 05:47:55;;;;;;;18.88;6.40;;;9.20;90.20;;;;;;5020957;28;20559;-61
2021/10/15 05:50:21;;;;;;;12.35;6.25;;;9.10;90.20;;;;;;5023380;28;20041;-62
2021/10/15 05:52:49;;;;;;;15.32;6.22;;;9.10;90.20;;;;;;5025304;28;20461;-62
2021/10/15 06:00:28;;;;;;;13.30;6.35;;;9.10;90.30;;;;;;5019649;28;20036;-62
2021/10/15 06:02:54;;;;;;;18.73;6.55;;;9.10;90.30;;;;;;5017661;28;20030;-62
2021/10/15 06:06:14;;;;;;;12.20;5.82;;;9.10;90.30;;;;;;5023112;28;20119;-62
2021/10/15 06:16:28;;;;;;;13.60;6.72;;;9.10;90.20;;;;;;5006758;28;20037;-62
2021/10/15 06:18:58;;;;;;;12.05;6.88;;;9.10;90.20;;;;;;5024549;28;20026;-62
2021/10/15 06:21:26;;;;;;;14.73;6.90;;;9.00;90.30;;;;;;5023128;28;20100;-62
2021/10/15 06:23:53;;;;;;;44.90;7.13;;;9.00;90.30;;;;;;5020512;28;20033;-62
2021/10/15 06:26:19;;;;;;;12.73;6.60;;;9.00;90.30;;;;;;5005011;28;20049;-61
2021/10/15 06:28:44;;;;;;;14.25;7.20;;;9.00;90.30;;;;;;5020346;28;20133;-62
2021/10/15 06:31:10;;;;;;;16.27;7.28;;;9.00;90.30;;;;;;5018958;28;20040;-62
2021/10/15 06:33:35;;;;;;;12.85;7.60;;;9.00;90.30;;;;;;5022643;28;20033;-61
2021/10/15 06:36:01;;;;;;;13.57;6.60;;;9.00;90.40;;;;;;5017163;28;20432;-62
2021/10/15 06:38:26;;;;;;;17.70;7.65;;;9.20;90.50;;;;;;5015348;28;20037;-62
2021/10/15 06:40:52;;;;;;;13.95;7.93;;;9.10;90.40;;;;;;5020299;28;20366;-62
2021/10/15 06:43:17;;;;;;;19.52;8.18;;;9.10;90.40;;;;;;5022871;28;20050;-61
2021/10/15 06:45:43;;;;;;;17.85;7.97;;;9.10;90.40;;;;;;5027001;28;20033;-62
2021/10/15 06:48:08;;;;;;;19.10;7.30;;;9.10;90.40;;;;;;5029054;28;20034;-62
2021/10/15 06:50:34;;;;;;;18.30;8.38;;;9.10;90.30;;;;;;5028442;28;20045;-61
2021/10/15 06:52:59;;;;;;;23.50;8.45;;;9.10;90.30;;;;;;5028003;28;20059;-62
2021/10/15 06:55:25;;;;;;;21.55;9.07;;;9.10;90.30;;;;;;5027041;28;20044;-61
2021/10/15 06:57:51;;;;;;;25.88;8.82;;;9.10;90.30;;;;;;5027667;28;20028;-62
2021/10/15 07:00:16;;;;;;;20.95;8.68;;;9.10;90.40;;;;;;5028336;28;20044;-62
2021/10/15 07:02:42;;;;;;;28.65;8.95;;;9.10;90.40;;;;;;5025634;28;20040;-62
2021/10/15 07:05:08;;;;;;;25.92;9.18;;;9.10;90.40;;;;;;5008402;28;20092;-60
2021/10/15 07:07:34;;;;;;;23.08;9.93;;;9.10;90.40;;;;;;5025634;28;20050;-62
2021/10/15 07:10:00;;;;;;;19.13;9.52;;;9.10;90.50;;;;;;5028327;28;20053;-61
2021/10/15 07:12:27;;;;;;;28.42;10.32;;;9.10;90.50;;;;;;5029355;28;20032;-60
2021/10/15 07:14:53;;;;;;;25.80;10.70;;;9.10;90.50;;;;;;5027025;28;20017;-60
2021/10/15 07:17:19;;;;;;;23.35;11.07;;;9.10;90.50;;;;;;5009486;28;20033;-60
2021/10/15 07:19:44;;;;;;;24.73;10.85;;;9.10;90.60;;;;;;5029035;28;20561;-61
2021/10/15 07:22:10;;;;;;;26.85;11.02;;;9.10;90.60;;;;;;5026776;28;20026;-62
2021/10/15 07:24:35;;;;;;;28.73;11.30;;;9.00;90.60;;;;;;5027408;28;20034;-61
2021/10/15 07:27:01;;;;;;;25.92;12.45;;;9.10;90.70;;;;;;5029293;28;20493;-61
2021/10/15 07:29:26;;;;;;;28.45;12.07;;;9.10;90.70;;;;;;5027144;28;20037;-61
2021/10/15 07:31:52;;;;;;;38.53;12.45;;;9.10;91.10;;;;;;5025757;28;20037;-61
2021/10/15 07:34:17;;;;;;;25.42;12.65;;;9.00;90.80;;;;;;5027407;28;20063;-60
2021/10/15 07:36:43;;;;;;;33.95;12.38;;;9.00;90.80;;;;;;5028476;28;20103;-61
2021/10/15 07:39:11;;;;;;;41.60;13.48;;;9.00;90.90;;;;;;5025473;28;20442;-61
2021/10/15 07:41:39;;;;;;;34.22;13.15;;;9.00;90.90;;;;;;5027888;28;20124;-61
2021/10/15 07:44:05;;;;;;;32.42;11.90;;;9.10;90.90;;;;;;5026002;28;20129;-60
2021/10/15 07:46:31;;;;;;;39.83;12.32;;;9.10;91.00;;;;;;5025135;28;20124;-60
2021/10/15 07:48:56;;;;;;;32.00;11.90;;;9.10;91.00;;;;;;5027840;28;20630;-61
2021/10/15 07:51:22;;;;;;;41.92;12.05;;;9.10;91.00;;;;;;5028361;28;20036;-60
2021/10/15 07:53:47;;;;;;;28.33;10.48;;;9.10;91.00;;;;;;5027665;28;20042;-60
2021/10/15 07:56:13;;;;;;;45.80;12.70;;;9.10;91.10;;;;;;5027945;28;20048;-61
2021/10/15 07:58:38;;;;;;;44.25;12.80;;;9.10;91.10;;;;;;5026208;28;20049;-61
2021/10/15 08:01:04;;;;;;;30.95;12.10;;;9.10;91.10;;;;;;5024100;28;20128;-60
2021/10/15 08:03:30;;;;;;;58.63;14.02;;;9.20;91.10;;;;;;5026565;28;20124;-61
2021/10/15 08:05:55;;;;;;;40.10;11.85;;;9.10;91.20;;;;;;5025153;28;20112;-61
2021/10/15 08:08:21;;;;;;;42.05;12.38;;;9.20;91.30;;;;;;5024744;28;20693;-61
2021/10/15 08:10:46;;;;;;;39.70;13.25;;;9.20;91.40;;;;;;5022572;28;20052;-60
2021/10/15 08:13:13;;;;;;;23.80;11.25;;;9.20;91.50;;;;;;5024207;28;20037;-61
2021/10/15 08:15:38;;;;;;;31.17;10.75;;;9.20;91.40;;;;;;5025553;28;20508;-60
2021/10/15 08:18:04;;;;;;;41.60;10.88;;;9.20;91.40;;;;;;5026686;28;20033;-61
2021/10/15 08:20:29;;;;;;;32.90;10.20;;;9.20;91.40;;;;;;5024633;28;20374;-61
2021/10/15 08:22:55;;;;;;;26.92;10.35;;;9.20;91.40;;;;;;5023487;28;20037;-60
2021/10/15 08:25:21;;;;;;;27.00;10.43;;;9.30;91.40;;;;;;5027112;28;20037;-61
2021/10/15 08:27:46;;;;;;;33.97;11.50;;;9.30;91.30;;;;;;5026506;28;20029;-60
2021/10/15 08:30:12;;;;;;;35.95;10.02;;;9.30;91.40;;;;;;5020272;28;20120;-60
2021/10/15 08:32:37;;;;;;;46.08;12.18;;;9.30;91.50;;;;;;5037097;28;20037;-62
2021/10/15 08:35:05;;;;;;;41.55;11.32;;;9.30;91.60;;;;;;5021856;28;20036;-60
2021/10/15 08:37:30;;;;;;;31.63;10.18;;;9.30;91.50;;;;;;5021346;28;20501;-60
2021/10/15 08:39:57;;;;;;;60.15;12.90;;;9.40;91.50;;;;;;5023144;28;20108;-61
2021/10/15 08:42:23;;;;;;;35.35;10.98;;;9.40;91.70;;;;;;5020104;28;20045;-60
2021/10/15 08:44:48;;;;;;;41.55;10.50;;;9.40;91.50;;;;;;5024674;28;20393;-61
2021/10/15 08:47:15;;;;;;;50.33;11.45;;;9.50;91.50;;;;;;5019953;28;20344;-61
2021/10/15 08:49:41;;;;;;;66.90;13.90;;;9.40;91.50;;;;;;5005396;28;20029;-61
2021/10/15 08:52:07;;;;;;;62.67;13.02;;;9.50;92.00;;;;;;5020278;28;20032;-61
2021/10/15 08:54:32;;;;;;;57.08;12.00;;;9.50;91.90;;;;;;5021893;28;20033;-61
2021/10/15 08:56:59;;;;;;;51.78;12.27;;;9.50;91.80;;;;;;5023055;28;20028;-61
2021/10/15 08:59:43;;;;;;;82.25;13.90;;;9.50;92.00;;;;;;5005411;28;20510;-61
2021/10/15 09:02:20;;;;;;;148.07;22.10;;;9.60;92.10;;;;;;5021511;28;20187;-60
2021/10/15 09:04:56;;;;;;;94.57;16.20;;;9.60;92.40;;;;;;5020770;28;20586;-60
2021/10/15 09:07:23;;;;;;;118.85;15.88;;;9.70;92.50;;;;;;5022032;28;20037;-61
2021/10/15 09:09:50;;;;;;;85.40;15.70;;;9.60;92.40;;;;;;5022265;28;20447;-61
2021/10/15 09:12:17;;;;;;;101.10;15.00;;;9.70;92.50;;;;;;5023354;28;20339;-61
2021/10/15 09:14:43;;;;;;;65.75;13.07;;;9.70;92.30;;;;;;5020938;28;20091;-61
2021/10/15 09:17:10;;;;;;;68.53;12.55;;;9.70;92.30;;;;;;5021863;28;20124;-61
2021/10/15 09:19:46;;;;;;;102.40;14.98;;;9.70;92.40;;;;;;5004367;28;20025;-61
2021/10/15 09:22:12;;;;;;;84.30;15.52;;;9.70;92.40;;;;;;5003717;28;20535;-61
2021/10/15 09:24:52;;;;;;;101.25;15.65;;;9.80;92.50;;;;;;5023808;28;20045;-61
2021/10/15 09:27:22;;;;;;;71.60;13.57;;;9.80;92.50;;;;;;5019490;28;20104;-61
2021/10/15 09:29:51;;;;;;;71.07;13.98;;;9.90;92.80;;;;;;5022177;28;20051;-60
2021/10/15 09:32:17;;;;;;;85.18;14.30;;;9.90;92.40;;;;;;5019173;28;20033;-61
2021/10/15 09:34:43;;;;;;;97.03;16.67;;;9.90;92.50;;;;;;5006202;28;20020;-60
2021/10/15 09:37:22;;;;;;;113.30;16.42;;;9.90;92.60;;;;;;5002873;28;20029;-60
2021/10/15 09:39:47;;;;;;;83.95;14.13;;;10.00;92.60;;;;;;5019604;28;20539;-60
2021/10/15 09:42:32;;;;;;;67.43;13.00;;;10.00;92.60;;;;;;5019058;28;20049;-60
2021/10/15 09:45:15;;;;;;;80.43;13.07;;;10.00;92.60;;;;;;5003173;28;20045;-61
2021/10/15 09:47:59;;;;;;;98.10;15.65;;;10.10;92.60;;;;;;5021660;28;20053;-61
2021/10/15 09:50:26;;;;;;;122.57;16.95;;;10.00;92.50;;;;;;5019911;28;20048;-61
2021/10/15 09:52:55;;;;;;;80.90;14.07;;;10.10;92.60;;;;;;5018918;28;20041;-61
2021/10/15 09:55:37;;;;;;;99.50;15.70;;;10.10;92.50;;;;;;5022150;28;20037;-61
2021/10/15 09:58:20;;;;;;;104.75;18.20;;;10.20;92.50;;;;;;5019963;28;20056;-60
2021/10/15 10:00:49;;;;;;;107.68;16.25;;;10.20;92.50;;;;;;5022586;28;20037;-60
2021/10/15 10:03:15;;;;;;;122.13;16.23;;;10.30;92.40;;;;;;5024800;28;20115;-60
2021/10/15 10:05:40;;;;;;;106.00;15.85;;;10.30;92.40;;;;;;5020304;28;20450;-60
2021/10/15 10:08:06;;;;;;;105.80;16.77;;;10.30;92.40;;;;;;5004675;28;20040;-61
2021/10/15 10:10:34;;;;;;;86.60;14.80;;;10.30;92.40;;;;;;5036847;28;20021;-60
2021/10/15 10:13:00;;;;;;;84.35;15.65;;;10.40;92.40;;;;;;5007440;28;20091;-60
2021/10/15 10:15:27;;;;;;;103.47;16.73;;;10.40;92.40;;;;;;5024076;28;20033;-61
2021/10/15 10:18:31;;;;;;;88.13;15.82;;;10.40;92.40;;;;;;5021877;28;20096;-60
2021/10/15 10:21:07;;;;;;;93.30;15.35;;;10.50;92.40;;;;;;5008114;28;20030;-61
2021/10/15 10:23:37;;;;;;;98.20;16.15;;;10.50;92.40;;;;;;5004393;28;20037;-61
2021/10/15 10:26:11;;;;;;;88.18;16.33;;;10.60;92.40;;;;;;5004821;28;20334;-60
2021/10/15 10:28:36;;;;;;;111.97;18.27;;;10.60;92.40;;;;;;5022664;28;20710;-60
2021/10/15 10:31:05;;;;;;;163.80;20.20;;;10.60;92.50;;;;;;5024205;28;20033;-62
2021/10/15 10:33:32;;;;;;;151.98;20.52;;;10.60;92.40;;;;;;5021531;28;20049;-61
2021/10/15 10:36:11;;;;;;;107.07;17.95;;;10.70;92.40;;;;;;5020480;28;20653;-61
2021/10/15 10:38:37;;;;;;;128.07;18.70;;;10.70;92.30;;;;;;5023339;28;20029;-61
2021/10/15 10:41:02;;;;;;;127.85;16.98;;;10.80;92.20;;;;;;5021342;28;20025;-61
2021/10/15 10:43:31;;;;;;;88.50;16.42;;;10.90;92.10;;;;;;5023256;28;20095;-60
2021/10/15 10:46:10;;;;;;;97.68;16.42;;;10.80;92.00;;;;;;5021740;28;20112;-60
2021/10/15 10:48:51;;;;;;;118.13;17.35;;;10.90;92.00;;;;;;5022515;28;20034;-61
2021/10/15 10:51:17;;;;;;;103.88;17.60;;;10.90;91.90;;;;;;5019490;28;20091;-60
2021/10/15 10:54:11;;;;;;;89.88;14.50;;;11.00;91.90;;;;;;5021144;28;20057;-61
2021/10/15 10:56:39;;;;;;;86.43;13.32;;;11.00;91.80;;;;;;5021949;28;20136;-60
2021/10/15 10:59:17;;;;;;;92.50;14.82;;;11.10;91.90;;;;;;5022155;28;20029;-61
2021/10/15 11:02:01;;;;;;;98.65;15.27;;;11.10;91.90;;;;;;5022561;28;20163;-61
2021/10/15 11:04:36;;;;;;;85.90;14.75;;;11.10;91.80;;;;;;5006289;28;20033;-60
2021/10/15 11:07:06;;;;;;;86.57;14.73;;;11.20;92.20;;;;;;5021499;28;20722;-61
2021/10/15 11:09:40;;;;;;;70.75;13.23;;;11.10;91.90;;;;;;5033500;28;20033;-60
2021/10/15 11:12:06;;;;;;;76.20;11.65;;;11.20;91.90;;;;;;5003890;28;20048;-61
2021/10/15 11:14:48;;;;;;;98.72;14.63;;;11.20;92.00;;;;;;5020014;28;20431;-62
2021/10/15 11:17:14;;;;;;;53.20;11.25;;;11.20;92.10;;;;;;5022362;28;20124;-61
2021/10/15 11:19:40;;;;;;;99.78;14.27;;;11.30;92.20;;;;;;5022107;28;20091;-61
2021/10/15 11:22:05;;;;;;;62.85;13.77;;;11.30;92.20;;;;;;5002466;28;20041;-60
2021/10/15 11:24:31;;;;;;;115.55;15.77;;;11.40;92.30;;;;;;5003405;28;20050;-61
2021/10/15 11:26:56;;;;;;;142.07;17.73;;;11.40;92.10;;;;;;5019153;28;20041;-61
2021/10/15 11:29:22;;;;;;;164.73;19.95;;;11.40;92.10;;;;;;5026888;28;20025;-61
2021/10/15 11:31:55;;;;;;;151.45;18.23;;;11.50;92.20;;;;;;5023572;28;20620;-61
2021/10/15 11:34:20;;;;;;;172.88;21.90;;;11.50;92.20;;;;;;5025419;28;20045;-61
2021/10/15 11:36:46;;;;;;;142.63;19.25;;;11.60;92.20;;;;;;5024642;28;20037;-60
2021/10/15 11:39:11;;;;;;;164.10;21.15;;;11.60;92.10;;;;;;5025862;28;20036;-60
2021/10/15 11:41:50;;;;;;;157.48;18.67;;;11.70;92.10;;;;;;5018311;28;20060;-59
2021/10/15 11:44:15;;;;;;;168.98;19.20;;;11.70;92.00;;;;;;5025294;28;20045;-61
2021/10/15 11:46:41;;;;;;;129.07;17.60;;;11.70;91.90;;;;;;5025221;28;20042;-61
2021/10/15 11:49:06;;;;;;;146.63;17.17;;;11.80;92.00;;;;;;5006241;28;20029;-60
2021/10/15 11:51:32;;;;;;;144.15;20.55;;;11.80;91.70;;;;;;5021481;28;20052;-61
2021/10/15 11:53:59;;;;;;;108.15;15.63;;;11.80;91.70;;;;;;5021240;28;20649;-61
2021/10/15 11:56:34;;;;;;;127.25;16.38;;;11.90;91.70;;;;;;5006607;28;20045;-61
2021/10/15 11:59:01;;;;;;;141.93;18.23;;;11.90;91.60;;;;;;5023047;28;20021;-61
2021/10/15 12:01:30;;;;;;;132.85;17.52;;;12.00;91.60;;;;;;5009771;28;20037;-61
2021/10/15 12:03:59;;;;;;;94.70;17.17;;;12.00;91.50;;;;;;5022603;28;20027;-61
2021/10/15 12:06:32;;;;;;;108.30;17.30;;;12.00;91.40;;;;;;5024659;28;20037;-61
2021/10/15 12:09:04;;;;;;;108.50;16.67;;;12.10;91.30;;;;;;5025226;28;20076;-61
2021/10/15 12:11:50;;;;;;;68.05;13.32;;;12.10;91.30;;;;;;5025935;28;20022;-61
2021/10/15 12:14:29;;;;;;;;;;;12.20;91.20;;;;;;5027574;28;20493;-61
2021/10/15 12:17:01;;;;;;;60.67;10.63;;;12.20;90.80;;;;;;5026459;28;20004;-62
2021/10/15 12:19:34;;;;;;;48.58;9.40;;;12.20;90.60;;;;;;5004809;28;20022;-61
2021/10/15 12:22:01;;;;;;;78.18;12.45;;;12.20;90.60;;;;;;5024835;28;20041;-61
2021/10/15 12:24:31;;;;;;;131.20;19.27;;;12.30;90.60;;;;;;5024880;28;20036;-61
2021/10/15 12:27:06;;;;;;;53.72;10.70;;;12.30;90.80;;;;;;5025290;28;20025;-60
2021/10/15 12:29:33;;;;;;;47.80;10.82;;;12.40;90.40;;;;;;5021872;28;20032;-60
2021/10/15 12:32:18;;;;;;;63.67;10.50;;;12.40;90.00;;;;;;5024450;28;20136;-61
2021/10/15 12:34:54;;;;;;;57.05;10.95;;;12.50;89.80;;;;;;5005234;28;20049;-60
2021/10/15 12:37:40;;;;;;;57.83;9.75;;;12.60;89.40;;;;;;5022667;28;20033;-60
2021/10/15 12:40:11;;;;;;;60.53;11.95;;;12.60;89.40;;;;;;5023877;28;20060;-60
2021/10/15 12:42:37;;;;;;;108.43;15.20;;;12.70;89.20;;;;;;5024603;28;20102;-60
2021/10/15 12:45:06;;;;;;;83.03;13.30;;;12.70;89.20;;;;;;5022281;28;20025;-60
2021/10/15 12:47:32;;;;;;;128.40;19.15;;;12.80;89.20;;;;;;5020607;28;20385;-60
2021/10/15 12:49:59;;;;;;;113.70;16.10;;;12.80;89.30;;;;;;5019887;28;20022;-60
2021/10/15 12:52:32;;;;;;;124.75;16.95;;;12.90;89.10;;;;;;5020397;28;20022;-61
2021/10/15 12:54:57;;;;;;;115.38;17.27;;;13.00;89.10;;;;;;5022478;28;20040;-61